Route Details

Aircraft Information
Group: European Fleet
Types: A30F, A31F, B738
Route Data
Distance: 1035nm
Duration: 2h 45m
Origin METAR: EDDK 160050Z AUTO 14005KT CAVOK 19/14 Q1008 NOSIG
Dest. METAR: LXGB 160050Z AUTO 28015KT 9999 NCD 22/17 Q1011
Freight Data
(for Aug 16, 2022)
Load Factor:
88%
Manifested Cargo: 64,916lbs
Financial History
Total Freight: 0lbs
Average Load: 0lbs/flt
Fuel Used: 0lbs
Avg. Fuel Used: 0lbs/flt
Fuel Expense: $0
Avg. Fuel Expense: $0
Avg. Fuel Cost: $0/lbs
Total Gross Income: $0
Pilot Pay: $0
Total Expenses: $0
Total Revenue: $0
Average Revenue: $0

Capitol Logistics 548




EDDK
Cologne Bonn Airport
Cologne, DE
LXGB
Gibraltar Airport
Gibraltar, GI

Activity Log

Date Flight Route Aircraft Duration
No Flights Yet